Ora, Indiana
Current Conditions -  °F | °C
As of 9:15 AM on Monday 24 Nov 2014 (Local Time) from KOXI Reporting Station
Overcast Overcast  
Wind Chill: 34°   Ceiling: 800
Heat Index: 43°   Visibility: 1.7mi
Dew Point: 41°   Wind: 20mph
Humidity: 95%   Direction: 250°WSW
Pressure: 29.17"   Gusts: 37mph
Location:  41.17°N, 86.55°W
Report Text: KOXI 241515Z AUTO 25017G32KT 1 3/4SM OVC008 06/05 A2917 RMK AO1 T00590051
Loading
Personal Weather Stations






























Interactive Weather Map New forecast layout! Learn more

10-Day Weather Forecast

Advertisements
Track Severe Weather on mobile